createdAt,value
2023-04-29T00:01:59.301Z,101394.53
2023-04-29T00:06:52.652Z,101399.88
2023-04-29T00:11:50.463Z,101404.41
2023-04-29T00:16:43.921Z,101375.16
2023-04-29T00:21:37.176Z,101446.25
2023-04-29T00:26:30.604Z,101252.63
2023-04-29T00:31:25.714Z,101221.34
2023-04-29T00:36:19.574Z,101238.22
2023-04-29T00:41:19.852Z,101296.63
2023-04-29T00:46:14.187Z,101434.28
2023-04-29T00:51:09.988Z,101370.31
2023-04-29T00:56:06.150Z,101417.44
2023-04-29T01:00:59.771Z,101206.13
2023-04-29T01:06:06.120Z,101311.63
2023-04-29T01:11:09.689Z,101383.19
2023-04-29T01:16:05.599Z,101296.13
2023-04-29T01:21:00.776Z,101320.63
2023-04-29T01:25:55.729Z,101313.13
2023-04-29T01:31:09.154Z,101376.94
2023-04-29T01:36:17.021Z,101386.59
2023-04-29T01:41:19.264Z,101301.25
2023-04-29T01:46:19.916Z,101407.22
2023-04-29T01:51:15.440Z,101339.84
2023-04-29T01:56:09.321Z,101232.09
2023-04-29T02:01:24.098Z,101410.03
2023-04-29T02:06:19.046Z,101287.84
2023-04-29T02:11:17.974Z,101410.78
2023-04-29T02:16:12.768Z,101353.59
2023-04-29T02:21:14.626Z,101326.41
2023-04-29T02:26:09.905Z,101322.97
2023-04-29T02:31:03.558Z,101380.75
2023-04-29T02:35:57.219Z,101255.72
2023-04-29T02:40:51.974Z,101386.06
2023-04-29T02:45:45.256Z,101308.16
2023-04-29T02:50:38.845Z,101342.13
2023-04-29T02:55:32.364Z,101334.19
2023-04-29T03:00:33.263Z,101284.94
2023-04-29T03:05:26.671Z,101374.75
2023-04-29T03:10:20.774Z,101344.53
2023-04-29T03:15:14.104Z,101313.09
2023-04-29T03:20:11.831Z,101328.63
2023-04-29T03:25:07.335Z,101301.16
2023-04-29T03:30:02.284Z,101186.00
2023-04-29T03:34:57.813Z,101404.41
2023-04-29T03:40:05.273Z,101306.28
2023-04-29T03:44:58.960Z,101418.59
2023-04-29T03:49:52.688Z,101391.06
2023-04-29T03:54:46.534Z,101422.91
2023-04-29T03:59:41.387Z,101391.88
2023-04-29T04:04:35.049Z,101431.13
2023-04-29T04:09:28.622Z,101428.78
2023-04-29T04:14:22.355Z,101266.94
2023-04-29T04:19:20.147Z,101417.09
2023-04-29T04:24:14.252Z,101426.41
2023-04-29T04:29:09.220Z,101360.06
2023-04-29T04:34:12.900Z,101414.28
2023-04-29T04:39:08.320Z,101403.63
2023-04-29T04:44:02.293Z,101434.31
2023-04-29T04:49:15.846Z,101385.88
2023-04-29T04:54:17.365Z,101436.66
2023-04-29T04:59:11.037Z,101436.69
2023-04-29T05:04:06.881Z,101382.50
2023-04-29T05:09:00.245Z,101302.69
2023-04-29T05:13:54.873Z,101405.13
2023-04-29T05:18:49.351Z,101437.91
2023-04-29T05:23:44.614Z,101442.19
2023-04-29T05:28:38.624Z,101407.88
2023-04-29T05:33:33.957Z,101433.56
2023-04-29T05:38:29.285Z,101399.28
2023-04-29T05:43:40.316Z,101421.28
2023-04-29T05:48:35.261Z,101399.97
2023-04-29T05:53:28.747Z,101394.09
2023-04-29T05:58:22.110Z,101424.06
2023-04-29T06:03:16.021Z,101432.34
2023-04-29T06:08:11.561Z,101395.94
2023-04-29T06:13:26.595Z,101413.53
2023-04-29T06:18:21.017Z,101422.69
2023-04-29T06:23:15.556Z,101384.69
2023-04-29T06:28:10.459Z,101414.44
2023-04-29T06:33:03.936Z,101401.16
2023-04-29T06:37:57.305Z,101404.50
2023-04-29T06:43:04.692Z,101396.75
2023-04-29T06:48:29.929Z,101414.25
2023-04-29T06:53:24.215Z,101404.91
2023-04-29T06:58:20.245Z,101379.38
2023-04-29T07:03:13.850Z,101400.53
2023-04-29T07:08:07.089Z,101321.09
2023-04-29T07:13:01.023Z,101410.38
2023-04-29T07:17:55.797Z,101365.66
2023-04-29T07:22:50.966Z,101408.00
2023-04-29T07:27:44.708Z,101379.19
2023-04-29T07:32:38.326Z,101374.34
2023-04-29T07:37:33.109Z,101341.84
2023-04-29T07:42:26.384Z,101383.00
2023-04-29T07:47:19.658Z,101359.41
2023-04-29T07:52:12.872Z,101383.78
2023-04-29T07:57:08.342Z,101392.06
2023-04-29T08:02:01.791Z,101355.09
2023-04-29T08:06:55.616Z,101354.22
2023-04-29T08:11:48.943Z,101290.03
2023-04-29T08:16:43.754Z,101352.94
2023-04-29T08:21:37.219Z,101333.47
2023-04-29T08:26:30.567Z,101274.38
2023-04-29T08:31:26.467Z,101304.47
2023-04-29T08:36:21.052Z,101341.06
2023-04-29T08:41:15.504Z,101330.22
2023-04-29T08:46:09.512Z,101299.47
2023-04-29T08:51:02.979Z,101309.09
2023-04-29T08:56:02.376Z,101279.13
2023-04-29T09:00:55.961Z,101300.81
2023-04-29T09:05:51.475Z,101314.22
2023-04-29T09:10:46.028Z,101248.44
2023-04-29T09:15:42.121Z,101310.19
2023-04-29T09:20:35.514Z,101298.69
2023-04-29T09:25:29.271Z,101296.72
2023-04-29T09:30:22.864Z,101268.31
2023-04-29T09:35:41.830Z,101190.34
2023-04-29T09:40:54.399Z,101282.25
2023-04-29T09:45:51.273Z,101254.31
2023-04-29T09:51:00.044Z,101233.16
2023-04-29T09:56:00.587Z,101265.25
2023-04-29T10:00:56.061Z,101253.28
2023-04-29T10:05:50.862Z,101236.75
2023-04-29T10:10:46.503Z,101232.44
2023-04-29T10:15:51.199Z,101221.50
2023-04-29T10:20:48.725Z,101249.66
2023-04-29T10:25:48.011Z,101190.00
2023-04-29T10:30:45.849Z,101245.22
2023-04-29T10:35:39.842Z,101200.19
2023-04-29T10:40:40.261Z,101233.66
2023-04-29T10:45:36.559Z,101216.91
2023-04-29T10:50:37.858Z,101078.06
2023-04-29T10:55:31.705Z,101228.59
2023-04-29T11:00:29.026Z,101137.53
2023-04-29T11:05:33.349Z,101189.97
2023-04-29T11:10:37.829Z,101181.28
2023-04-29T11:15:43.932Z,101216.84
2023-04-29T11:21:11.717Z,101172.59
2023-04-29T11:26:06.528Z,101184.94
2023-04-29T11:31:03.786Z,101135.84
2023-04-29T11:35:59.356Z,101192.56
2023-04-29T11:40:57.077Z,101159.19
2023-04-29T11:45:55.043Z,101190.59
2023-04-29T11:50:58.508Z,101186.28
2023-04-29T11:56:00.940Z,101120.47
2023-04-29T12:00:55.608Z,101115.16
2023-04-29T12:05:49.518Z,101174.69
2023-04-29T12:10:49.457Z,101088.88
2023-04-29T12:15:48.880Z,101129.09
2023-04-29T12:20:43.901Z,101007.63
2023-04-29T12:25:39.552Z,101075.84
2023-04-29T12:30:36.106Z,101152.38
2023-04-29T12:35:29.333Z,101097.41
2023-04-29T12:40:26.031Z,101064.72
2023-04-29T12:45:34.976Z,100990.16
2023-04-29T12:50:33.683Z,101117.72
2023-04-29T12:55:29.124Z,101077.88
2023-04-29T13:00:25.220Z,101102.78
2023-04-29T13:05:20.633Z,101080.97
2023-04-29T13:10:16.818Z,101067.31
2023-04-29T13:15:12.343Z,101067.22
2023-04-29T13:20:06.279Z,101069.16
2023-04-29T13:25:02.382Z,101081.16
2023-04-29T13:29:56.362Z,101059.13
2023-04-29T13:34:51.717Z,101051.25
2023-04-29T13:39:47.324Z,101044.56
2023-04-29T13:44:51.871Z,101064.59
2023-04-29T13:59:56.878Z,101019.56
2023-04-29T14:04:51.727Z,101034.09
2023-04-29T14:09:49.377Z,100993.06
2023-04-29T14:14:42.562Z,100983.25
2023-04-29T14:19:36.023Z,101030.19
2023-04-29T14:24:29.239Z,100995.28
2023-04-29T14:29:23.895Z,101035.09
2023-04-29T14:34:20.238Z,101032.44
2023-04-29T14:39:13.996Z,101001.75
2023-04-29T14:44:07.235Z,101034.44
2023-04-29T14:49:04.355Z,101024.31
2023-04-29T14:53:57.598Z,101026.34
2023-04-29T14:58:50.873Z,101031.09
2023-04-29T15:03:44.971Z,100979.00
2023-04-29T15:08:42.673Z,101011.38
2023-04-29T15:13:36.067Z,101017.50
2023-04-29T15:18:29.183Z,101017.09
2023-04-29T15:23:22.284Z,100989.97
2023-04-29T15:28:16.941Z,100960.94
2023-04-29T15:33:10.275Z,101011.25
2023-04-29T15:38:03.578Z,100966.44
2023-04-29T15:42:56.726Z,101008.44
2023-04-29T15:47:51.398Z,100986.09
2023-04-29T15:52:44.640Z,101003.72
2023-04-29T15:57:41.349Z,100942.84
2023-04-29T16:02:35.024Z,100998.53
2023-04-29T16:07:29.772Z,100961.47
2023-04-29T16:12:23.208Z,100997.19
2023-04-29T16:17:16.390Z,100994.47
2023-04-29T16:22:09.590Z,100916.22
2023-04-29T16:27:04.200Z,100966.91
2023-04-29T16:31:57.555Z,100995.31
2023-04-29T16:36:53.366Z,100999.47
2023-04-29T16:41:46.534Z,100975.50
2023-04-29T16:46:41.416Z,101003.63
2023-04-29T16:51:34.743Z,101004.88
2023-04-29T16:56:27.813Z,101004.88
2023-04-29T17:01:21.572Z,100993.75
2023-04-29T17:06:16.743Z,100968.66
2023-04-29T17:11:10.576Z,101017.00
2023-04-29T17:16:05.461Z,100936.16
2023-04-29T17:20:58.666Z,100956.09
2023-04-29T17:25:56.594Z,100970.34
2023-04-29T17:30:51.556Z,101010.69
2023-04-29T17:35:46.396Z,100983.31
2023-04-29T17:40:39.728Z,100968.72
2023-04-29T17:45:40.801Z,100983.06
2023-04-29T17:50:36.396Z,100927.47
2023-04-29T17:55:32.075Z,100991.69
2023-04-29T18:00:26.672Z,100957.44
2023-04-29T18:05:25.333Z,100834.38
2023-04-29T18:10:22.450Z,100954.78
2023-04-29T18:15:26.467Z,101027.31
2023-04-29T18:28:18.848Z,100803.31
2023-04-29T18:33:44.718Z,100861.56
2023-04-29T18:46:51.271Z,100899.03
2023-04-29T18:52:14.458Z,100840.00
2023-04-29T18:57:25.181Z,100870.34
2023-04-29T19:08:16.706Z,100846.94
2023-04-29T19:13:14.325Z,100928.50
2023-04-29T19:18:26.865Z,100873.13
2023-04-29T19:23:29.739Z,101051.66
2023-04-29T19:28:23.566Z,101047.25
2023-04-29T19:33:20.733Z,100937.31
2023-04-29T19:38:14.521Z,100872.03
2023-04-29T19:43:20.941Z,101000.97
2023-04-29T19:48:14.603Z,100913.94
2023-04-29T19:53:09.394Z,101022.97
2023-04-29T19:58:02.723Z,101040.00
2023-04-29T20:02:59.647Z,101014.47
2023-04-29T20:07:56.668Z,100936.78
2023-04-29T20:12:52.622Z,100917.50
2023-04-29T20:17:48.415Z,101042.44
2023-04-29T20:22:42.215Z,100869.91
2023-04-29T20:27:41.622Z,100949.13
2023-04-29T20:32:37.522Z,100802.56
2023-04-29T20:37:31.852Z,100889.53
2023-04-29T20:42:25.340Z,100917.03
2023-04-29T20:47:29.857Z,100908.50
2023-04-29T20:52:41.791Z,100821.13
2023-04-29T20:57:38.245Z,101022.78
2023-04-29T21:02:32.081Z,100906.59
2023-04-29T21:07:25.457Z,101019.38
2023-04-29T21:12:28.634Z,100920.59
2023-04-29T21:17:25.103Z,100939.94
2023-04-29T21:22:18.406Z,100998.81
2023-04-29T21:27:12.952Z,100859.81
2023-04-29T21:32:10.867Z,100987.78
2023-04-29T21:37:04.602Z,100992.56
2023-04-29T21:42:07.167Z,100822.44
2023-04-29T21:47:41.014Z,100889.75
2023-04-29T21:53:00.097Z,100761.41
2023-04-29T21:58:03.995Z,100945.75
2023-04-29T22:03:08.840Z,100935.94
2023-04-29T22:08:03.268Z,100929.94
2023-04-29T22:13:01.933Z,100904.69
2023-04-29T22:23:46.156Z,100877.56
2023-04-29T22:28:44.548Z,100780.03
2023-04-29T22:33:47.827Z,100954.38
2023-04-29T22:38:41.935Z,100979.31
2023-04-29T22:43:37.284Z,100806.59
2023-04-29T22:48:30.978Z,100850.56
2023-04-29T22:53:24.597Z,100913.06
2023-04-29T22:58:18.235Z,100889.72
2023-04-29T23:03:15.720Z,100848.78
2023-04-29T23:08:12.338Z,100775.88
2023-04-29T23:13:05.662Z,100895.31
2023-04-29T23:18:01.295Z,100803.91
2023-04-29T23:22:56.723Z,100877.00
2023-04-29T23:27:56.137Z,100956.31
2023-04-29T23:32:52.523Z,100895.94
2023-04-29T23:37:52.505Z,100887.03
2023-04-29T23:42:59.587Z,100838.72
2023-04-29T23:47:59.078Z,100711.16
2023-04-29T23:52:52.535Z,100950.88
2023-04-29T23:57:47.459Z,100707.38
